sensor_id;sensor_type;location;lat;lon;timestamp;pressure;altitude;pressure_sealevel;temperature;humidity
76728;BME280;65652;53.132;18.026;2023-03-26T00:00:41;99674.14;;;7.62;77.60
76728;BME280;65652;53.132;18.026;2023-03-26T00:03:28;99671.67;;;7.62;77.77
76728;BME280;65652;53.132;18.026;2023-03-26T00:08:34;99669.36;;;7.59;77.78
76728;BME280;65652;53.132;18.026;2023-03-26T00:11:01;99666.05;;;7.56;78.07
76728;BME280;65652;53.132;18.026;2023-03-26T00:13:27;99660.23;;;7.55;78.00
76728;BME280;65652;53.132;18.026;2023-03-26T00:15:54;99659.56;;;7.55;77.73
76728;BME280;65652;53.132;18.026;2023-03-26T00:18:22;99659.20;;;7.53;77.92
76728;BME280;65652;53.132;18.026;2023-03-26T00:20:56;99654.60;;;7.51;77.89
76728;BME280;65652;53.132;18.026;2023-03-26T00:23:23;99654.96;;;7.51;77.88
76728;BME280;65652;53.132;18.026;2023-03-26T00:25:50;99654.23;;;7.50;78.21
76728;BME280;65652;53.132;18.026;2023-03-26T00:28:17;99651.85;;;7.47;78.08
76728;BME280;65652;53.132;18.026;2023-03-26T00:30:47;99649.23;;;7.45;77.98
76728;BME280;65652;53.132;18.026;2023-03-26T00:33:14;99648.91;;;7.42;78.21
76728;BME280;65652;53.132;18.026;2023-03-26T00:35:43;99648.75;;;7.40;78.04
76728;BME280;65652;53.132;18.026;2023-03-26T00:38:13;99642.78;;;7.38;78.24
76728;BME280;65652;53.132;18.026;2023-03-26T00:40:40;99641.58;;;7.36;78.50
76728;BME280;65652;53.132;18.026;2023-03-26T00:43:13;99639.20;;;7.31;78.51
76728;BME280;65652;53.132;18.026;2023-03-26T00:45:47;99642.84;;;7.30;78.56
76728;BME280;65652;53.132;18.026;2023-03-26T00:48:14;99641.52;;;7.27;78.96
76728;BME280;65652;53.132;18.026;2023-03-26T00:50:43;99633.84;;;7.25;79.24
76728;BME280;65652;53.132;18.026;2023-03-26T00:53:11;99629.86;;;7.22;79.35
76728;BME280;65652;53.132;18.026;2023-03-26T00:55:39;99631.02;;;7.21;79.27
76728;BME280;65652;53.132;18.026;2023-03-26T00:58:06;99631.98;;;7.20;79.33
76728;BME280;65652;53.132;18.026;2023-03-26T01:00:41;99632.13;;;7.21;79.36
76728;BME280;65652;53.132;18.026;2023-03-26T01:03:13;99628.44;;;7.21;79.60
76728;BME280;65652;53.132;18.026;2023-03-26T01:05:42;99628.69;;;7.20;79.50
76728;BME280;65652;53.132;18.026;2023-03-26T01:08:21;99624.45;;;7.20;79.44
76728;BME280;65652;53.132;18.026;2023-03-26T01:10:49;99615.38;;;7.21;79.41
76728;BME280;65652;53.132;18.026;2023-03-26T01:13:21;99617.33;;;7.23;79.09
76728;BME280;65652;53.132;18.026;2023-03-26T01:15:48;99613.59;;;7.26;79.11
76728;BME280;65652;53.132;18.026;2023-03-26T01:18:18;99612.86;;;7.28;78.98
76728;BME280;65652;53.132;18.026;2023-03-26T01:20:48;99614.58;;;7.30;78.94
76728;BME280;65652;53.132;18.026;2023-03-26T01:23:21;99610.36;;;7.32;78.75
76728;BME280;65652;53.132;18.026;2023-03-26T01:26:00;99608.95;;;7.34;78.59
76728;BME280;65652;53.132;18.026;2023-03-26T01:28:32;99609.30;;;7.36;78.54
76728;BME280;65652;53.132;18.026;2023-03-26T01:31:11;99613.89;;;7.36;78.76
76728;BME280;65652;53.132;18.026;2023-03-26T01:34:29;99612.13;;;7.36;78.78
76728;BME280;65652;53.132;18.026;2023-03-26T01:36:47;99610.77;;;7.35;78.53
76728;BME280;65652;53.132;18.026;2023-03-26T01:39:28;99606.67;;;7.34;78.59
76728;BME280;65652;53.132;18.026;2023-03-26T01:41:57;99609.19;;;7.33;78.65
76728;BME280;65652;53.132;18.026;2023-03-26T01:44:44;99616.22;;;7.32;79.09
76728;BME280;65652;53.132;18.026;2023-03-26T01:47:16;99613.52;;;7.30;78.84
76728;BME280;65652;53.132;18.026;2023-03-26T01:49:43;99616.98;;;7.29;78.94
76728;BME280;65652;53.132;18.026;2023-03-26T01:52:15;99610.55;;;7.28;78.99
76728;BME280;65652;53.132;18.026;2023-03-26T01:54:42;99610.86;;;7.26;79.01
76728;BME280;65652;53.132;18.026;2023-03-26T02:00:36;99602.48;;;7.24;78.90
76728;BME280;65652;53.132;18.026;2023-03-26T02:03:19;99604.61;;;7.24;78.80
76728;BME280;65652;53.132;18.026;2023-03-26T02:05:56;99602.88;;;7.24;78.83
76728;BME280;65652;53.132;18.026;2023-03-26T02:08:38;99599.14;;;7.24;78.86
76728;BME280;65652;53.132;18.026;2023-03-26T02:11:09;99603.48;;;7.25;78.68
76728;BME280;65652;53.132;18.026;2023-03-26T02:13:37;99598.27;;;7.26;78.61
76728;BME280;65652;53.132;18.026;2023-03-26T02:16:07;99594.15;;;7.27;78.83
76728;BME280;65652;53.132;18.026;2023-03-26T02:18:34;99597.20;;;7.28;78.61
76728;BME280;65652;53.132;18.026;2023-03-26T02:21:09;99595.23;;;7.28;78.66
76728;BME280;65652;53.132;18.026;2023-03-26T02:23:42;99594.06;;;7.30;78.39
76728;BME280;65652;53.132;18.026;2023-03-26T02:26:13;99592.90;;;7.31;78.28
76728;BME280;65652;53.132;18.026;2023-03-26T02:28:51;99593.11;;;7.32;78.35
76728;BME280;65652;53.132;18.026;2023-03-26T02:31:18;99590.14;;;7.34;78.09
76728;BME280;65652;53.132;18.026;2023-03-26T02:33:44;99587.92;;;7.35;78.18
76728;BME280;65652;53.132;18.026;2023-03-26T02:36:12;99587.07;;;7.37;77.93
76728;BME280;65652;53.132;18.026;2023-03-26T02:38:40;99589.79;;;7.38;78.01
76728;BME280;65652;53.132;18.026;2023-03-26T02:41:06;99595.23;;;7.38;78.07
76728;BME280;65652;53.132;18.026;2023-03-26T02:43:56;99592.70;;;7.39;78.00
76728;BME280;65652;53.132;18.026;2023-03-26T02:46:24;99588.98;;;7.39;78.27
76728;BME280;65652;53.132;18.026;2023-03-26T02:49:04;99585.13;;;7.39;78.19
76728;BME280;65652;53.132;18.026;2023-03-26T02:51:31;99583.77;;;7.38;78.16
76728;BME280;65652;53.132;18.026;2023-03-26T02:54:09;99583.13;;;7.38;78.56
76728;BME280;65652;53.132;18.026;2023-03-26T02:56:35;99582.92;;;7.36;78.63
76728;BME280;65652;53.132;18.026;2023-03-26T02:59:20;99575.77;;;7.34;78.64
76728;BME280;65652;53.132;18.026;2023-03-26T03:01:50;99571.34;;;7.32;78.55
76728;BME280;65652;53.132;18.026;2023-03-26T03:04:17;99571.23;;;7.31;78.83
76728;BME280;65652;53.132;18.026;2023-03-26T03:06:44;99569.05;;;7.31;78.98
76728;BME280;65652;53.132;18.026;2023-03-26T03:09:11;99569.64;;;7.30;78.71
76728;BME280;65652;53.132;18.026;2023-03-26T03:11:38;99567.50;;;7.30;78.81
76728;BME280;65652;53.132;18.026;2023-03-26T03:14:06;99566.23;;;7.31;78.85
76728;BME280;65652;53.132;18.026;2023-03-26T03:16:33;99565.00;;;7.31;78.85
76728;BME280;65652;53.132;18.026;2023-03-26T03:19:04;99568.13;;;7.31;78.61
76728;BME280;65652;53.132;18.026;2023-03-26T03:21:37;99565.00;;;7.31;78.52
76728;BME280;65652;53.132;18.026;2023-03-26T03:24:04;99570.45;;;7.31;78.44
76728;BME280;65652;53.132;18.026;2023-03-26T03:26:34;99565.89;;;7.31;78.42
76728;BME280;65652;53.132;18.026;2023-03-26T03:29:30;99560.04;;;7.31;78.22
76728;BME280;65652;53.132;18.026;2023-03-26T03:31:58;99562.90;;;7.32;78.27
76728;BME280;65652;53.132;18.026;2023-03-26T03:34:42;99564.39;;;7.34;78.43
76728;BME280;65652;53.132;18.026;2023-03-26T03:37:08;99564.19;;;7.36;78.26
76728;BME280;65652;53.132;18.026;2023-03-26T03:39:41;99562.25;;;7.38;78.28
76728;BME280;65652;53.132;18.026;2023-03-26T03:42:07;99560.52;;;7.39;78.38
76728;BME280;65652;53.132;18.026;2023-03-26T03:44:34;99564.24;;;7.41;78.11
76728;BME280;65652;53.132;18.026;2023-03-26T03:47:00;99559.84;;;7.41;78.27
76728;BME280;65652;53.132;18.026;2023-03-26T03:49:27;99559.08;;;7.41;78.25
76728;BME280;65652;53.132;18.026;2023-03-26T03:51:55;99554.96;;;7.42;78.12
76728;BME280;65652;53.132;18.026;2023-03-26T03:54:30;99558.95;;;7.43;78.07
76728;BME280;65652;53.132;18.026;2023-03-26T03:57:03;99557.30;;;7.43;77.94
76728;BME280;65652;53.132;18.026;2023-03-26T03:59:38;99553.75;;;7.44;78.33
76728;BME280;65652;53.132;18.026;2023-03-26T04:02:07;99556.52;;;7.44;78.32
76728;BME280;65652;53.132;18.026;2023-03-26T04:04:40;99554.34;;;7.43;78.28
76728;BME280;65652;53.132;18.026;2023-03-26T04:07:11;99558.09;;;7.43;78.39
76728;BME280;65652;53.132;18.026;2023-03-26T04:10:13;99557.66;;;7.42;78.34
76728;BME280;65652;53.132;18.026;2023-03-26T04:13:03;99556.67;;;7.41;78.46
76728;BME280;65652;53.132;18.026;2023-03-26T04:15:58;99556.98;;;7.39;78.41
76728;BME280;65652;53.132;18.026;2023-03-26T04:18:26;99556.64;;;7.37;78.77
76728;BME280;65652;53.132;18.026;2023-03-26T04:20:52;99554.17;;;7.36;79.00
76728;BME280;65652;53.132;18.026;2023-03-26T04:23:30;99551.66;;;7.32;78.80
76728;BME280;65652;53.132;18.026;2023-03-26T04:26:03;99551.47;;;7.31;79.33
76728;BME280;65652;53.132;18.026;2023-03-26T04:29:02;99552.39;;;7.28;79.25
76728;BME280;65652;53.132;18.026;2023-03-26T04:31:31;99549.77;;;7.27;79.09
76728;BME280;65652;53.132;18.026;2023-03-26T04:34:06;99547.17;;;7.26;78.94
76728;BME280;65652;53.132;18.026;2023-03-26T04:36:34;99549.29;;;7.26;79.27
76728;BME280;65652;53.132;18.026;2023-03-26T04:39:02;99542.65;;;7.25;79.23
76728;BME280;65652;53.132;18.026;2023-03-26T04:41:49;99543.02;;;7.25;79.56
76728;BME280;65652;53.132;18.026;2023-03-26T04:44:19;99541.70;;;7.25;79.70
76728;BME280;65652;53.132;18.026;2023-03-26T04:47:09;99541.14;;;7.23;79.55
76728;BME280;65652;53.132;18.026;2023-03-26T04:49:43;99539.39;;;7.23;79.85
76728;BME280;65652;53.132;18.026;2023-03-26T04:52:12;99537.17;;;7.22;79.87
76728;BME280;65652;53.132;18.026;2023-03-26T04:55:32;99534.18;;;7.22;79.78
76728;BME280;65652;53.132;18.026;2023-03-26T04:58:05;99537.97;;;7.23;80.15
76728;BME280;65652;53.132;18.026;2023-03-26T05:00:54;99534.46;;;7.23;80.12
76728;BME280;65652;53.132;18.026;2023-03-26T05:03:20;99537.95;;;7.23;79.95
76728;BME280;65652;53.132;18.026;2023-03-26T05:05:47;99540.47;;;7.25;79.92
76728;BME280;65652;53.132;18.026;2023-03-26T05:08:14;99536.64;;;7.26;80.05
76728;BME280;65652;53.132;18.026;2023-03-26T05:10:41;99540.60;;;7.29;80.09
76728;BME280;65652;53.132;18.026;2023-03-26T05:13:14;99539.31;;;7.30;80.13
76728;BME280;65652;53.132;18.026;2023-03-26T05:15:46;99539.91;;;7.30;79.89
76728;BME280;65652;53.132;18.026;2023-03-26T05:18:32;99543.52;;;7.31;80.05
76728;BME280;65652;53.132;18.026;2023-03-26T05:21:00;99542.02;;;7.30;80.00
76728;BME280;65652;53.132;18.026;2023-03-26T05:23:26;99540.61;;;7.31;80.11
76728;BME280;65652;53.132;18.026;2023-03-26T05:26:02;99540.25;;;7.29;80.38
76728;BME280;65652;53.132;18.026;2023-03-26T05:28:28;99546.11;;;7.28;80.37
76728;BME280;65652;53.132;18.026;2023-03-26T05:31:00;99541.09;;;7.29;80.37
76728;BME280;65652;53.132;18.026;2023-03-26T05:33:31;99543.38;;;7.31;80.35
76728;BME280;65652;53.132;18.026;2023-03-26T05:36:07;99539.30;;;7.31;80.61
76728;BME280;65652;53.132;18.026;2023-03-26T05:38:35;99538.88;;;7.30;80.51
76728;BME280;65652;53.132;18.026;2023-03-26T05:41:04;99543.11;;;7.28;80.68
76728;BME280;65652;53.132;18.026;2023-03-26T05:43:32;99541.24;;;7.27;80.83
76728;BME280;65652;53.132;18.026;2023-03-26T05:46:07;99540.23;;;7.25;80.71
76728;BME280;65652;53.132;18.026;2023-03-26T05:48:34;99541.03;;;7.26;80.83
76728;BME280;65652;53.132;18.026;2023-03-26T05:51:00;99539.43;;;7.28;81.04
76728;BME280;65652;53.132;18.026;2023-03-26T05:53:29;99538.02;;;7.34;80.80
76728;BME280;65652;53.132;18.026;2023-03-26T05:56:30;99542.02;;;7.45;80.80
76728;BME280;65652;53.132;18.026;2023-03-26T05:59:15;99544.29;;;7.55;80.92
76728;BME280;65652;53.132;18.026;2023-03-26T06:02:08;99544.17;;;7.61;80.79
76728;BME280;65652;53.132;18.026;2023-03-26T06:04:38;99546.62;;;7.66;80.83
76728;BME280;65652;53.132;18.026;2023-03-26T06:07:37;99543.02;;;7.66;80.68
76728;BME280;65652;53.132;18.026;2023-03-26T06:10:14;99547.78;;;7.66;80.52
76728;BME280;65652;53.132;18.026;2023-03-26T06:12:40;99558.80;;;7.63;80.31
76728;BME280;65652;53.132;18.026;2023-03-26T06:15:07;99552.86;;;7.59;80.36
76728;BME280;65652;53.132;18.026;2023-03-26T06:17:54;99553.27;;;7.55;80.38
76728;BME280;65652;53.132;18.026;2023-03-26T06:20:42;99548.48;;;7.52;80.45
76728;BME280;65652;53.132;18.026;2023-03-26T06:23:29;99549.11;;;7.48;80.53
76728;BME280;65652;53.132;18.026;2023-03-26T06:26:30;99545.23;;;7.47;80.50
76728;BME280;65652;53.132;18.026;2023-03-26T06:29:22;99550.51;;;7.45;80.70
76728;BME280;65652;53.132;18.026;2023-03-26T06:32:07;99556.48;;;7.45;80.50
76728;BME280;65652;53.132;18.026;2023-03-26T06:34:40;99552.94;;;7.47;80.52
76728;BME280;65652;53.132;18.026;2023-03-26T06:37:07;99556.58;;;7.47;80.55
76728;BME280;65652;53.132;18.026;2023-03-26T06:39:34;99560.71;;;7.46;80.35
76728;BME280;65652;53.132;18.026;2023-03-26T06:42:32;99570.64;;;7.47;80.33
76728;BME280;65652;53.132;18.026;2023-03-26T06:45:22;99572.04;;;7.48;80.46
76728;BME280;65652;53.132;18.026;2023-03-26T06:48:26;99574.62;;;7.44;79.89
76728;BME280;65652;53.132;18.026;2023-03-26T06:51:13;99577.05;;;7.43;79.80
76728;BME280;65652;53.132;18.026;2023-03-26T06:54:15;99573.39;;;7.42;79.87
76728;BME280;65652;53.132;18.026;2023-03-26T06:57:02;99578.83;;;7.40;79.98
76728;BME280;65652;53.132;18.026;2023-03-26T06:59:31;99581.30;;;7.39;79.73
76728;BME280;65652;53.132;18.026;2023-03-26T07:02:16;99585.09;;;7.37;79.57
76728;BME280;65652;53.132;18.026;2023-03-26T07:05:00;99587.35;;;7.43;79.65
76728;BME280;65652;53.132;18.026;2023-03-26T07:07:46;99588.44;;;7.56;80.00
76728;BME280;65652;53.132;18.026;2023-03-26T07:10:50;99586.05;;;7.72;79.39
76728;BME280;65652;53.132;18.026;2023-03-26T07:13:35;99586.23;;;7.93;78.77
76728;BME280;65652;53.132;18.026;2023-03-26T07:16:37;99589.30;;;8.03;78.09
76728;BME280;65652;53.132;18.026;2023-03-26T07:19:27;99593.15;;;8.08;77.78
76728;BME280;65652;53.132;18.026;2023-03-26T07:21:53;99595.33;;;8.19;77.47
76728;BME280;65652;53.132;18.026;2023-03-26T07:24:42;99592.60;;;8.36;77.06
76728;BME280;65652;53.132;18.026;2023-03-26T07:30:07;99595.04;;;8.54;76.33
76728;BME280;65652;53.132;18.026;2023-03-26T07:45:23;99603.50;;;8.60;76.10
76728;BME280;65652;53.132;18.026;2023-03-26T07:48:18;99598.00;;;8.57;75.93
76728;BME280;65652;53.132;18.026;2023-03-26T07:51:17;99596.09;;;8.51;75.69
76728;BME280;65652;53.132;18.026;2023-03-26T07:54:10;99599.70;;;8.52;75.55
76728;BME280;65652;53.132;18.026;2023-03-26T07:57:15;99597.16;;;8.47;75.65
76728;BME280;65652;53.132;18.026;2023-03-26T08:00:02;99599.70;;;8.48;75.75
76728;BME280;65652;53.132;18.026;2023-03-26T08:11:54;99606.74;;;8.54;76.24
76728;BME280;65652;53.132;18.026;2023-03-26T08:14:30;99615.11;;;8.58;76.06
76728;BME280;65652;53.132;18.026;2023-03-26T08:22:28;99616.33;;;8.80;74.44
76728;BME280;65652;53.132;18.026;2023-03-26T08:31:00;99616.91;;;8.85;74.31
76728;BME280;65652;53.132;18.026;2023-03-26T08:33:28;99614.66;;;8.88;74.36
76728;BME280;65652;53.132;18.026;2023-03-26T08:35:55;99619.36;;;8.92;73.78
76728;BME280;65652;53.132;18.026;2023-03-26T08:38:21;99614.92;;;8.96;73.76
76728;BME280;65652;53.132;18.026;2023-03-26T09:14:35;99632.36;;;9.14;71.50
76728;BME280;65652;53.132;18.026;2023-03-26T09:17:33;99633.74;;;9.17;71.22
76728;BME280;65652;53.132;18.026;2023-03-26T09:25:55;99639.43;;;9.12;70.57
76728;BME280;65652;53.132;18.026;2023-03-26T09:42:53;99638.85;;;9.49;70.33
76728;BME280;65652;53.132;18.026;2023-03-26T09:51:17;99643.63;;;9.87;68.81
76728;BME280;65652;53.132;18.026;2023-03-26T10:05:01;99653.51;;;9.82;67.41
76728;BME280;65652;53.132;18.026;2023-03-26T10:16:00;99661.27;;;9.56;67.97
76728;BME280;65652;53.132;18.026;2023-03-26T10:18:41;99660.61;;;9.59;67.56
76728;BME280;65652;53.132;18.026;2023-03-26T10:21:24;99656.59;;;9.81;67.67
76728;BME280;65652;53.132;18.026;2023-03-26T10:24:05;99655.63;;;10.02;67.59
76728;BME280;65652;53.132;18.026;2023-03-26T10:29:23;99645.80;;;10.61;66.05
76728;BME280;65652;53.132;18.026;2023-03-26T10:56:19;99651.50;;;10.86;64.70
76728;BME280;65652;53.132;18.026;2023-03-26T10:58:42;99649.82;;;10.93;66.02
76728;BME280;65652;53.132;18.026;2023-03-26T11:07:48;99644.13;;;12.04;66.76
76728;BME280;65652;53.132;18.026;2023-03-26T11:10:10;99640.98;;;12.76;65.03
76728;BME280;65652;53.132;18.026;2023-03-26T11:15:21;99634.59;;;13.16;62.95
76728;BME280;65652;53.132;18.026;2023-03-26T11:21:04;99634.14;;;13.11;60.99
76728;BME280;65652;53.132;18.026;2023-03-26T11:23:39;99625.94;;;12.79;58.08
76728;BME280;65652;53.132;18.026;2023-03-26T11:26:28;99632.55;;;12.60;58.99
76728;BME280;65652;53.132;18.026;2023-03-26T11:37:38;99638.29;;;11.84;60.19
76728;BME280;65652;53.132;18.026;2023-03-26T11:40:13;99635.05;;;11.75;59.54
76728;BME280;65652;53.132;18.026;2023-03-26T11:42:42;99632.29;;;11.60;60.02
76728;BME280;65652;53.132;18.026;2023-03-26T11:45:16;99634.63;;;11.44;59.77
76728;BME280;65652;53.132;18.026;2023-03-26T11:47:48;99638.02;;;11.29;60.24
76728;BME280;65652;53.132;18.026;2023-03-26T11:50:22;99637.02;;;11.21;60.21
76728;BME280;65652;53.132;18.026;2023-03-26T11:52:54;99639.88;;;11.15;61.32
76728;BME280;65652;53.132;18.026;2023-03-26T11:55:23;99640.67;;;11.16;61.89
76728;BME280;65652;53.132;18.026;2023-03-26T11:57:54;99642.33;;;11.17;62.24
76728;BME280;65652;53.132;18.026;2023-03-26T12:00:23;99646.39;;;11.13;61.85
76728;BME280;65652;53.132;18.026;2023-03-26T12:02:56;99653.53;;;11.06;62.47
76728;BME280;65652;53.132;18.026;2023-03-26T12:05:27;99648.34;;;10.97;63.17
76728;BME280;65652;53.132;18.026;2023-03-26T12:08:01;99648.31;;;10.81;63.91
76728;BME280;65652;53.132;18.026;2023-03-26T12:10:34;99646.73;;;10.66;64.88
76728;BME280;65652;53.132;18.026;2023-03-26T12:16:07;99654.59;;;10.45;66.37
76728;BME280;65652;53.132;18.026;2023-03-26T12:18:36;99659.33;;;10.39;66.97
76728;BME280;65652;53.132;18.026;2023-03-26T12:21:08;99661.57;;;10.37;67.17
76728;BME280;65652;53.132;18.026;2023-03-26T12:23:41;99659.29;;;10.57;67.22
76728;BME280;65652;53.132;18.026;2023-03-26T12:26:19;99654.52;;;11.28;67.05
76728;BME280;65652;53.132;18.026;2023-03-26T12:28:48;99653.77;;;11.92;65.24
76728;BME280;65652;53.132;18.026;2023-03-26T12:31:16;99653.64;;;11.95;63.92
76728;BME280;65652;53.132;18.026;2023-03-26T12:33:50;99650.98;;;12.00;64.00
76728;BME280;65652;53.132;18.026;2023-03-26T12:36:29;99646.71;;;12.19;63.64
76728;BME280;65652;53.132;18.026;2023-03-26T12:38:56;99643.67;;;12.55;61.93
76728;BME280;65652;53.132;18.026;2023-03-26T12:41:42;99644.07;;;12.71;61.08
76728;BME280;65652;53.132;18.026;2023-03-26T12:44:31;99645.69;;;12.81;61.78
76728;BME280;65652;53.132;18.026;2023-03-26T12:49:44;99648.88;;;13.52;59.18
76728;BME280;65652;53.132;18.026;2023-03-26T12:58:49;99630.40;;;15.06;55.91
76728;BME280;65652;53.132;18.026;2023-03-26T13:04:31;99622.20;;;15.36;54.03
76728;BME280;65652;53.132;18.026;2023-03-26T13:07:19;99617.14;;;15.40;54.97
76728;BME280;65652;53.132;18.026;2023-03-26T13:12:43;99614.54;;;15.57;52.61
76728;BME280;65652;53.132;18.026;2023-03-26T13:15:24;99607.02;;;15.14;53.20
76728;BME280;65652;53.132;18.026;2023-03-26T13:18:02;99608.09;;;14.62;53.41
76728;BME280;65652;53.132;18.026;2023-03-26T13:23:32;99611.54;;;13.86;55.28
76728;BME280;65652;53.132;18.026;2023-03-26T13:42:40;99618.47;;;12.41;56.84
76728;BME280;65652;53.132;18.026;2023-03-26T13:47:45;99619.86;;;12.05;57.25
76728;BME280;65652;53.132;18.026;2023-03-26T13:50:28;99618.64;;;11.98;58.08
76728;BME280;65652;53.132;18.026;2023-03-26T13:53:03;99620.15;;;11.96;58.12
76728;BME280;65652;53.132;18.026;2023-03-26T13:55:38;99616.83;;;11.94;58.41
76728;BME280;65652;53.132;18.026;2023-03-26T13:58:41;99618.29;;;12.02;58.41
76728;BME280;65652;53.132;18.026;2023-03-26T14:01:20;99616.84;;;12.05;58.46
76728;BME280;65652;53.132;18.026;2023-03-26T14:08:59;99620.11;;;11.90;57.72
76728;BME280;65652;53.132;18.026;2023-03-26T14:36:00;99586.68;;;15.44;50.41
76728;BME280;65652;53.132;18.026;2023-03-26T14:41:28;99594.13;;;15.37;49.19
76728;BME280;65652;53.132;18.026;2023-03-26T14:47:15;99597.12;;;14.76;48.59
76728;BME280;65652;53.132;18.026;2023-03-26T14:52:50;99600.73;;;13.96;50.04
76728;BME280;65652;53.132;18.026;2023-03-26T15:09:02;99619.41;;;12.57;54.24
76728;BME280;65652;53.132;18.026;2023-03-26T15:40:28;99616.95;;;12.52;54.42
76728;BME280;65652;53.132;18.026;2023-03-26T15:43:09;99614.79;;;12.90;53.51
76728;BME280;65652;53.132;18.026;2023-03-26T15:45:56;99613.61;;;12.77;52.72
76728;BME280;65652;53.132;18.026;2023-03-26T15:54:02;99619.96;;;12.26;53.68
76728;BME280;65652;53.132;18.026;2023-03-26T16:07:22;99628.02;;;11.79;55.95
76728;BME280;65652;53.132;18.026;2023-03-26T16:10:28;99627.89;;;11.57;56.63
76728;BME280;65652;53.132;18.026;2023-03-26T16:15:54;99634.05;;;11.49;57.13
76728;BME280;65652;53.132;18.026;2023-03-26T16:18:31;99637.63;;;11.70;56.81
76728;BME280;65652;53.132;18.026;2023-03-26T16:28:58;99635.39;;;12.02;59.71
76728;BME280;65652;53.132;18.026;2023-03-26T16:31:24;99637.27;;;12.15;58.26
76728;BME280;65652;53.132;18.026;2023-03-26T16:33:57;99643.31;;;12.05;57.26
76728;BME280;65652;53.132;18.026;2023-03-26T16:36:42;99644.23;;;11.83;57.60
76728;BME280;65652;53.132;18.026;2023-03-26T16:39:16;99648.18;;;11.58;58.25
76728;BME280;65652;53.132;18.026;2023-03-26T16:44:31;99655.17;;;11.40;59.08
76728;BME280;65652;53.132;18.026;2023-03-26T16:52:37;99656.33;;;11.12;58.98
76728;BME280;65652;53.132;18.026;2023-03-26T17:03:36;99665.92;;;10.29;60.44
76728;BME280;65652;53.132;18.026;2023-03-26T17:09:49;99664.07;;;9.97;61.01
76728;BME280;65652;53.132;18.026;2023-03-26T17:15:12;99666.23;;;9.68;61.38
76728;BME280;65652;53.132;18.026;2023-03-26T17:31:17;99689.37;;;9.18;60.09
76728;BME280;65652;53.132;18.026;2023-03-26T17:33:46;99686.59;;;9.12;59.67
76728;BME280;65652;53.132;18.026;2023-03-26T17:42:15;99694.19;;;9.05;59.79
76728;BME280;65652;53.132;18.026;2023-03-26T17:44:41;99695.33;;;8.95;59.60
76728;BME280;65652;53.132;18.026;2023-03-26T17:47:37;99694.36;;;8.86;59.73
76728;BME280;65652;53.132;18.026;2023-03-26T17:50:17;99699.29;;;8.76;59.71
76728;BME280;65652;53.132;18.026;2023-03-26T17:52:51;99699.65;;;8.66;59.45
76728;BME280;65652;53.132;18.026;2023-03-26T17:55:21;99702.15;;;8.59;59.73
76728;BME280;65652;53.132;18.026;2023-03-26T17:57:56;99700.66;;;8.53;59.88
76728;BME280;65652;53.132;18.026;2023-03-26T18:00:27;99701.20;;;8.45;59.83
76728;BME280;65652;53.132;18.026;2023-03-26T18:03:15;99697.00;;;8.37;59.90
76728;BME280;65652;53.132;18.026;2023-03-26T18:05:45;99698.77;;;8.32;60.18
76728;BME280;65652;53.132;18.026;2023-03-26T18:08:40;99698.80;;;8.26;60.21
76728;BME280;65652;53.132;18.026;2023-03-26T18:16:17;99701.80;;;8.10;60.41
76728;BME280;65652;53.132;18.026;2023-03-26T18:18:49;99700.71;;;8.05;60.54
76728;BME280;65652;53.132;18.026;2023-03-26T18:21:38;99697.30;;;8.00;60.52
76728;BME280;65652;53.132;18.026;2023-03-26T18:24:07;99696.86;;;7.96;60.58
76728;BME280;65652;53.132;18.026;2023-03-26T18:26:41;99695.04;;;7.91;60.52
76728;BME280;65652;53.132;18.026;2023-03-26T18:29:24;99692.61;;;7.86;60.71
76728;BME280;65652;53.132;18.026;2023-03-26T18:34:31;99691.63;;;7.78;60.69
76728;BME280;65652;53.132;18.026;2023-03-26T18:39:57;99688.21;;;7.69;61.11
76728;BME280;65652;53.132;18.026;2023-03-26T18:42:25;99689.64;;;7.64;61.41
76728;BME280;65652;53.132;18.026;2023-03-26T18:44:52;99682.67;;;7.59;61.64
76728;BME280;65652;53.132;18.026;2023-03-26T18:47:19;99686.05;;;7.55;61.64
76728;BME280;65652;53.132;18.026;2023-03-26T18:49:48;99695.92;;;7.51;61.71
76728;BME280;65652;53.132;18.026;2023-03-26T18:52:18;99699.25;;;7.47;61.97
76728;BME280;65652;53.132;18.026;2023-03-26T18:54:48;99702.05;;;7.43;61.87
76728;BME280;65652;53.132;18.026;2023-03-26T18:57:23;99709.58;;;7.40;62.14
76728;BME280;65652;53.132;18.026;2023-03-26T18:59:52;99715.19;;;7.38;62.37
76728;BME280;65652;53.132;18.026;2023-03-26T19:02:20;99713.23;;;7.34;62.20
76728;BME280;65652;53.132;18.026;2023-03-26T19:04:48;99715.54;;;7.28;62.34
76728;BME280;65652;53.132;18.026;2023-03-26T19:07:23;99714.17;;;7.20;62.30
76728;BME280;65652;53.132;18.026;2023-03-26T19:09:50;99718.90;;;7.10;62.50
76728;BME280;65652;53.132;18.026;2023-03-26T19:12:28;99720.14;;;7.05;62.93
76728;BME280;65652;53.132;18.026;2023-03-26T19:15:06;99723.44;;;6.99;62.89
76728;BME280;65652;53.132;18.026;2023-03-26T19:17:43;99727.91;;;6.94;63.18
76728;BME280;65652;53.132;18.026;2023-03-26T19:20:20;99732.08;;;6.89;63.06
76728;BME280;65652;53.132;18.026;2023-03-26T19:22:48;99728.29;;;6.84;63.67
76728;BME280;65652;53.132;18.026;2023-03-26T19:25:24;99730.48;;;6.79;63.69
76728;BME280;65652;53.132;18.026;2023-03-26T19:27:51;99727.91;;;6.74;63.86
76728;BME280;65652;53.132;18.026;2023-03-26T19:30:25;99733.43;;;6.69;64.68
76728;BME280;65652;53.132;18.026;2023-03-26T19:32:54;99740.27;;;6.63;64.82
76728;BME280;65652;53.132;18.026;2023-03-26T19:35:25;99743.60;;;6.57;65.26
76728;BME280;65652;53.132;18.026;2023-03-26T19:37:52;99745.98;;;6.52;65.47
76728;BME280;65652;53.132;18.026;2023-03-26T19:40:23;99742.85;;;6.48;65.63
76728;BME280;65652;53.132;18.026;2023-03-26T19:42:57;99741.51;;;6.43;65.79
76728;BME280;65652;53.132;18.026;2023-03-26T19:45:24;99737.33;;;6.39;66.21
76728;BME280;65652;53.132;18.026;2023-03-26T19:47:52;99740.73;;;6.36;66.30
76728;BME280;65652;53.132;18.026;2023-03-26T19:50:25;99742.22;;;6.33;66.30